sensor_id;sensor_type;location;lat;lon;timestamp;P1;durP1;ratioP1;P2;durP2;ratioP2
23565;SDS011;22140;48.988;8.544;2023-02-28T00:04:05;8.20;;;2.77;;
23565;SDS011;22140;48.988;8.544;2023-02-28T00:09:06;7.40;;;2.55;;
23565;SDS011;22140;48.988;8.544;2023-02-28T00:14:07;8.48;;;2.70;;
23565;SDS011;22140;48.988;8.544;2023-02-28T00:19:08;7.00;;;2.40;;
23565;SDS011;22140;48.988;8.544;2023-02-28T00:24:10;8.15;;;2.85;;
23565;SDS011;22140;48.988;8.544;2023-02-28T00:29:11;7.63;;;2.90;;
23565;SDS011;22140;48.988;8.544;2023-02-28T00:34:12;7.53;;;2.60;;
23565;SDS011;22140;48.988;8.544;2023-02-28T00:39:14;7.45;;;2.58;;
23565;SDS011;22140;48.988;8.544;2023-02-28T00:44:15;7.47;;;3.07;;
23565;SDS011;22140;48.988;8.544;2023-02-28T00:49:17;7.60;;;2.72;;
23565;SDS011;22140;48.988;8.544;2023-02-28T00:54:18;7.57;;;2.90;;
23565;SDS011;22140;48.988;8.544;2023-02-28T00:59:20;8.18;;;2.80;;
23565;SDS011;22140;48.988;8.544;2023-02-28T01:04:21;9.38;;;2.95;;
23565;SDS011;22140;48.988;8.544;2023-02-28T01:09:23;7.50;;;2.70;;
23565;SDS011;22140;48.988;8.544;2023-02-28T01:14:24;8.20;;;3.00;;
23565;SDS011;22140;48.988;8.544;2023-02-28T01:19:25;8.00;;;2.87;;
23565;SDS011;22140;48.988;8.544;2023-02-28T01:24:27;7.55;;;2.85;;
23565;SDS011;22140;48.988;8.544;2023-02-28T01:29:28;7.45;;;2.85;;
23565;SDS011;22140;48.988;8.544;2023-02-28T01:34:29;7.20;;;2.53;;
23565;SDS011;22140;48.988;8.544;2023-02-28T01:39:31;6.78;;;3.00;;
23565;SDS011;22140;48.988;8.544;2023-02-28T01:49:52;8.02;;;2.67;;
23565;SDS011;22140;48.988;8.544;2023-02-28T01:54:55;8.80;;;2.67;;
23565;SDS011;22140;48.988;8.544;2023-02-28T01:59:57;7.10;;;2.70;;
23565;SDS011;22140;48.988;8.544;2023-02-28T02:05:11;9.60;;;2.72;;
23565;SDS011;22140;48.988;8.544;2023-02-28T02:10:16;7.17;;;2.63;;
23565;SDS011;22140;48.988;8.544;2023-02-28T02:15:34;7.70;;;2.80;;
23565;SDS011;22140;48.988;8.544;2023-02-28T02:26:12;6.93;;;2.60;;
23565;SDS011;22140;48.988;8.544;2023-02-28T02:36:51;8.87;;;2.90;;
23565;SDS011;22140;48.988;8.544;2023-02-28T02:41:54;7.95;;;2.80;;
23565;SDS011;22140;48.988;8.544;2023-02-28T02:47:06;9.48;;;2.88;;
23565;SDS011;22140;48.988;8.544;2023-02-28T02:52:09;8.00;;;2.83;;
23565;SDS011;22140;48.988;8.544;2023-02-28T02:57:13;9.23;;;2.63;;
23565;SDS011;22140;48.988;8.544;2023-02-28T03:02:16;7.50;;;3.20;;
23565;SDS011;22140;48.988;8.544;2023-02-28T03:07:19;7.93;;;2.90;;
23565;SDS011;22140;48.988;8.544;2023-02-28T03:12:20;8.43;;;2.97;;
23565;SDS011;22140;48.988;8.544;2023-02-28T03:22:45;10.52;;;3.15;;
23565;SDS011;22140;48.988;8.544;2023-02-28T03:28:03;8.50;;;3.03;;
23565;SDS011;22140;48.988;8.544;2023-02-28T03:33:08;8.18;;;3.20;;
23565;SDS011;22140;48.988;8.544;2023-02-28T03:38:12;9.68;;;3.42;;
23565;SDS011;22140;48.988;8.544;2023-02-28T03:43:18;9.87;;;3.60;;
23565;SDS011;22140;48.988;8.544;2023-02-28T03:48:22;11.65;;;3.38;;
23565;SDS011;22140;48.988;8.544;2023-02-28T03:53:32;10.80;;;4.10;;
23565;SDS011;22140;48.988;8.544;2023-02-28T03:58:54;9.77;;;3.30;;
23565;SDS011;22140;48.988;8.544;2023-02-28T04:03:56;9.18;;;3.35;;
23565;SDS011;22140;48.988;8.544;2023-02-28T04:08:58;11.37;;;3.83;;
23565;SDS011;22140;48.988;8.544;2023-02-28T04:13:59;8.32;;;3.40;;
23565;SDS011;22140;48.988;8.544;2023-02-28T04:19:01;10.63;;;3.70;;
23565;SDS011;22140;48.988;8.544;2023-02-28T04:24:07;7.70;;;3.17;;
23565;SDS011;22140;48.988;8.544;2023-02-28T04:29:10;9.35;;;3.38;;
23565;SDS011;22140;48.988;8.544;2023-02-28T04:34:11;11.00;;;3.90;;
23565;SDS011;22140;48.988;8.544;2023-02-28T04:39:13;10.55;;;3.72;;
23565;SDS011;22140;48.988;8.544;2023-02-28T04:44:14;9.80;;;3.23;;
23565;SDS011;22140;48.988;8.544;2023-02-28T04:49:16;9.77;;;3.50;;
23565;SDS011;22140;48.988;8.544;2023-02-28T04:54:17;9.55;;;3.72;;
23565;SDS011;22140;48.988;8.544;2023-02-28T04:59:19;11.97;;;4.13;;
23565;SDS011;22140;48.988;8.544;2023-02-28T05:04:20;11.70;;;3.88;;
23565;SDS011;22140;48.988;8.544;2023-02-28T05:09:21;17.50;;;3.93;;
23565;SDS011;22140;48.988;8.544;2023-02-28T05:14:23;11.85;;;3.70;;
23565;SDS011;22140;48.988;8.544;2023-02-28T05:19:24;8.63;;;3.45;;
23565;SDS011;22140;48.988;8.544;2023-02-28T05:24:25;10.27;;;3.60;;
23565;SDS011;22140;48.988;8.544;2023-02-28T05:29:27;11.50;;;4.10;;
23565;SDS011;22140;48.988;8.544;2023-02-28T05:34:28;10.87;;;3.43;;
23565;SDS011;22140;48.988;8.544;2023-02-28T05:39:29;9.40;;;3.70;;
23565;SDS011;22140;48.988;8.544;2023-02-28T05:44:31;8.88;;;3.58;;
23565;SDS011;22140;48.988;8.544;2023-02-28T05:49:32;11.83;;;4.10;;
23565;SDS011;22140;48.988;8.544;2023-02-28T05:54:33;8.50;;;3.50;;
23565;SDS011;22140;48.988;8.544;2023-02-28T05:59:35;12.17;;;3.87;;
23565;SDS011;22140;48.988;8.544;2023-02-28T06:04:40;13.85;;;3.90;;
23565;SDS011;22140;48.988;8.544;2023-02-28T06:09:42;9.30;;;3.95;;
23565;SDS011;22140;48.988;8.544;2023-02-28T06:14:43;8.93;;;3.77;;
23565;SDS011;22140;48.988;8.544;2023-02-28T06:19:45;10.82;;;4.10;;
23565;SDS011;22140;48.988;8.544;2023-02-28T06:24:46;13.53;;;3.87;;
23565;SDS011;22140;48.988;8.544;2023-02-28T06:29:47;15.35;;;5.60;;
23565;SDS011;22140;48.988;8.544;2023-02-28T06:34:49;13.63;;;3.97;;
23565;SDS011;22140;48.988;8.544;2023-02-28T06:39:51;12.60;;;4.57;;
23565;SDS011;22140;48.988;8.544;2023-02-28T06:44:53;10.10;;;3.90;;
23565;SDS011;22140;48.988;8.544;2023-02-28T06:49:54;11.53;;;3.77;;
23565;SDS011;22140;48.988;8.544;2023-02-28T06:54:55;9.98;;;3.90;;
23565;SDS011;22140;48.988;8.544;2023-02-28T07:00:03;9.73;;;3.80;;
23565;SDS011;22140;48.988;8.544;2023-02-28T07:05:05;11.23;;;3.87;;
23565;SDS011;22140;48.988;8.544;2023-02-28T07:10:07;10.50;;;3.88;;
23565;SDS011;22140;48.988;8.544;2023-02-28T07:15:08;9.33;;;3.63;;
23565;SDS011;22140;48.988;8.544;2023-02-28T07:20:10;9.95;;;3.60;;
23565;SDS011;22140;48.988;8.544;2023-02-28T07:25:12;12.73;;;4.03;;
23565;SDS011;22140;48.988;8.544;2023-02-28T07:30:13;15.50;;;4.20;;
23565;SDS011;22140;48.988;8.544;2023-02-28T07:35:14;10.48;;;3.88;;
23565;SDS011;22140;48.988;8.544;2023-02-28T07:40:20;11.00;;;4.17;;
23565;SDS011;22140;48.988;8.544;2023-02-28T07:45:21;15.40;;;4.20;;
23565;SDS011;22140;48.988;8.544;2023-02-28T07:50:23;14.88;;;4.75;;
23565;SDS011;22140;48.988;8.544;2023-02-28T07:55:27;13.40;;;4.60;;
23565;SDS011;22140;48.988;8.544;2023-02-28T08:00:28;11.85;;;4.68;;
23565;SDS011;22140;48.988;8.544;2023-02-28T08:05:30;9.30;;;3.53;;
23565;SDS011;22140;48.988;8.544;2023-02-28T08:10:32;12.13;;;4.32;;
23565;SDS011;22140;48.988;8.544;2023-02-28T08:15:33;10.82;;;4.30;;
23565;SDS011;22140;48.988;8.544;2023-02-28T08:20:34;13.27;;;4.43;;
23565;SDS011;22140;48.988;8.544;2023-02-28T08:25:36;11.27;;;4.65;;
23565;SDS011;22140;48.988;8.544;2023-02-28T08:30:37;11.23;;;4.33;;
23565;SDS011;22140;48.988;8.544;2023-02-28T08:35:39;11.48;;;4.53;;
23565;SDS011;22140;48.988;8.544;2023-02-28T08:40:40;11.05;;;4.82;;
23565;SDS011;22140;48.988;8.544;2023-02-28T08:45:41;15.33;;;4.83;;
23565;SDS011;22140;48.988;8.544;2023-02-28T08:50:43;13.07;;;4.68;;
23565;SDS011;22140;48.988;8.544;2023-02-28T08:55:57;13.60;;;5.30;;
23565;SDS011;22140;48.988;8.544;2023-02-28T09:00:58;16.90;;;4.82;;
23565;SDS011;22140;48.988;8.544;2023-02-28T09:06:00;11.85;;;4.55;;
23565;SDS011;22140;48.988;8.544;2023-02-28T09:11:02;16.27;;;5.50;;
23565;SDS011;22140;48.988;8.544;2023-02-28T09:16:04;13.20;;;5.00;;
23565;SDS011;22140;48.988;8.544;2023-02-28T09:21:07;14.23;;;5.03;;
23565;SDS011;22140;48.988;8.544;2023-02-28T09:26:13;14.20;;;5.85;;
23565;SDS011;22140;48.988;8.544;2023-02-28T09:31:16;16.27;;;5.93;;
23565;SDS011;22140;48.988;8.544;2023-02-28T09:36:18;14.67;;;5.80;;
23565;SDS011;22140;48.988;8.544;2023-02-28T09:41:20;14.27;;;5.55;;
23565;SDS011;22140;48.988;8.544;2023-02-28T09:46:27;13.60;;;5.27;;
23565;SDS011;22140;48.988;8.544;2023-02-28T09:57:14;12.50;;;5.25;;
23565;SDS011;22140;48.988;8.544;2023-02-28T10:03:03;11.40;;;5.10;;
23565;SDS011;22140;48.988;8.544;2023-02-28T10:13:02;13.10;;;5.73;;
23565;SDS011;22140;48.988;8.544;2023-02-28T10:18:05;12.45;;;5.20;;
23565;SDS011;22140;48.988;8.544;2023-02-28T10:23:20;27.52;;;6.65;;
23565;SDS011;22140;48.988;8.544;2023-02-28T10:28:21;15.57;;;5.87;;
23565;SDS011;22140;48.988;8.544;2023-02-28T10:33:33;16.35;;;6.35;;
23565;SDS011;22140;48.988;8.544;2023-02-28T10:38:36;13.20;;;5.27;;
23565;SDS011;22140;48.988;8.544;2023-02-28T10:43:38;15.75;;;5.85;;
23565;SDS011;22140;48.988;8.544;2023-02-28T10:48:41;12.40;;;5.50;;
23565;SDS011;22140;48.988;8.544;2023-02-28T10:53:54;13.40;;;6.00;;
23565;SDS011;22140;48.988;8.544;2023-02-28T10:59:19;16.27;;;5.45;;
23565;SDS011;22140;48.988;8.544;2023-02-28T11:09:32;13.63;;;5.88;;
23565;SDS011;22140;48.988;8.544;2023-02-28T11:14:39;14.27;;;5.85;;
23565;SDS011;22140;48.988;8.544;2023-02-28T11:19:44;12.50;;;5.50;;
23565;SDS011;22140;48.988;8.544;2023-02-28T11:24:47;13.30;;;5.85;;
23565;SDS011;22140;48.988;8.544;2023-02-28T11:29:49;14.17;;;5.67;;
23565;SDS011;22140;48.988;8.544;2023-02-28T11:40:14;13.60;;;5.93;;
23565;SDS011;22140;48.988;8.544;2023-02-28T11:55:52;14.30;;;6.23;;
23565;SDS011;22140;48.988;8.544;2023-02-28T12:01:06;14.98;;;6.03;;
23565;SDS011;22140;48.988;8.544;2023-02-28T12:16:49;16.60;;;6.60;;
23565;SDS011;22140;48.988;8.544;2023-02-28T12:22:05;13.93;;;5.90;;
23565;SDS011;22140;48.988;8.544;2023-02-28T12:27:11;14.40;;;6.30;;
23565;SDS011;22140;48.988;8.544;2023-02-28T12:37:17;16.10;;;7.07;;
23565;SDS011;22140;48.988;8.544;2023-02-28T12:42:26;17.08;;;6.75;;
23565;SDS011;22140;48.988;8.544;2023-02-28T12:47:29;18.33;;;7.73;;
23565;SDS011;22140;48.988;8.544;2023-02-28T13:02:55;15.67;;;6.40;;
23565;SDS011;22140;48.988;8.544;2023-02-28T13:13:03;19.90;;;6.47;;
23565;SDS011;22140;48.988;8.544;2023-02-28T13:18:05;17.10;;;6.88;;
23565;SDS011;22140;48.988;8.544;2023-02-28T13:23:16;16.50;;;6.40;;
23565;SDS011;22140;48.988;8.544;2023-02-28T13:34:11;16.90;;;7.32;;
23565;SDS011;22140;48.988;8.544;2023-02-28T13:45:07;13.65;;;6.55;;
23565;SDS011;22140;48.988;8.544;2023-02-28T13:50:16;18.70;;;6.97;;
23565;SDS011;22140;48.988;8.544;2023-02-28T13:55:24;15.17;;;7.10;;
23565;SDS011;22140;48.988;8.544;2023-02-28T14:05:32;18.63;;;7.20;;
23565;SDS011;22140;48.988;8.544;2023-02-28T14:10:41;14.20;;;6.80;;
23565;SDS011;22140;48.988;8.544;2023-02-28T14:15:44;19.08;;;7.47;;
23565;SDS011;22140;48.988;8.544;2023-02-28T14:20:47;18.27;;;7.43;;
23565;SDS011;22140;48.988;8.544;2023-02-28T14:31:13;15.50;;;7.07;;
23565;SDS011;22140;48.988;8.544;2023-02-28T14:36:18;16.65;;;7.55;;
23565;SDS011;22140;48.988;8.544;2023-02-28T14:41:29;14.95;;;7.15;;
23565;SDS011;22140;48.988;8.544;2023-02-28T14:46:36;16.40;;;7.53;;
23565;SDS011;22140;48.988;8.544;2023-02-28T14:51:38;15.48;;;7.30;;
23565;SDS011;22140;48.988;8.544;2023-02-28T14:56:39;16.23;;;7.10;;
23565;SDS011;22140;48.988;8.544;2023-02-28T15:01:41;18.67;;;7.53;;
23565;SDS011;22140;48.988;8.544;2023-02-28T15:06:42;17.25;;;7.10;;
23565;SDS011;22140;48.988;8.544;2023-02-28T15:11:49;17.20;;;7.63;;
23565;SDS011;22140;48.988;8.544;2023-02-28T15:16:52;15.27;;;7.13;;
23565;SDS011;22140;48.988;8.544;2023-02-28T15:21:59;17.93;;;7.63;;
23565;SDS011;22140;48.988;8.544;2023-02-28T15:27:03;15.45;;;7.30;;
23565;SDS011;22140;48.988;8.544;2023-02-28T15:32:06;16.98;;;7.47;;
23565;SDS011;22140;48.988;8.544;2023-02-28T15:42:28;19.90;;;7.57;;
23565;SDS011;22140;48.988;8.544;2023-02-28T15:47:30;16.83;;;6.90;;
23565;SDS011;22140;48.988;8.544;2023-02-28T15:52:37;17.00;;;7.38;;
23565;SDS011;22140;48.988;8.544;2023-02-28T15:57:39;18.02;;;7.68;;
23565;SDS011;22140;48.988;8.544;2023-02-28T16:02:41;15.87;;;7.17;;
23565;SDS011;22140;48.988;8.544;2023-02-28T16:07:43;17.52;;;7.80;;
23565;SDS011;22140;48.988;8.544;2023-02-28T16:12:45;17.40;;;7.53;;
23565;SDS011;22140;48.988;8.544;2023-02-28T16:17:46;19.98;;;7.82;;
23565;SDS011;22140;48.988;8.544;2023-02-28T16:22:47;20.70;;;8.85;;
23565;SDS011;22140;48.988;8.544;2023-02-28T16:27:50;22.70;;;8.87;;
23565;SDS011;22140;48.988;8.544;2023-02-28T16:32:54;19.85;;;7.97;;
23565;SDS011;22140;48.988;8.544;2023-02-28T16:37:56;17.53;;;7.90;;
23565;SDS011;22140;48.988;8.544;2023-02-28T16:42:58;18.60;;;7.07;;
23565;SDS011;22140;48.988;8.544;2023-02-28T16:48:00;21.05;;;7.82;;
23565;SDS011;22140;48.988;8.544;2023-02-28T16:53:01;18.27;;;7.70;;
23565;SDS011;22140;48.988;8.544;2023-02-28T16:58:03;21.33;;;9.98;;
23565;SDS011;22140;48.988;8.544;2023-02-28T17:03:04;19.57;;;8.37;;
23565;SDS011;22140;48.988;8.544;2023-02-28T17:08:08;16.17;;;7.57;;
23565;SDS011;22140;48.988;8.544;2023-02-28T17:13:09;14.77;;;7.35;;
23565;SDS011;22140;48.988;8.544;2023-02-28T17:18:16;16.03;;;7.10;;
23565;SDS011;22140;48.988;8.544;2023-02-28T17:23:19;18.27;;;7.78;;
23565;SDS011;22140;48.988;8.544;2023-02-28T17:28:21;19.60;;;9.07;;
23565;SDS011;22140;48.988;8.544;2023-02-28T17:33:23;15.32;;;7.28;;
23565;SDS011;22140;48.988;8.544;2023-02-28T17:38:24;17.80;;;8.15;;
23565;SDS011;22140;48.988;8.544;2023-02-28T17:43:26;16.67;;;7.43;;
23565;SDS011;22140;48.988;8.544;2023-02-28T17:48:27;27.60;;;12.07;;
23565;SDS011;22140;48.988;8.544;2023-02-28T17:53:29;17.13;;;8.07;;
23565;SDS011;22140;48.988;8.544;2023-02-28T17:58:31;18.65;;;8.32;;
23565;SDS011;22140;48.988;8.544;2023-02-28T18:03:32;17.77;;;8.52;;
23565;SDS011;22140;48.988;8.544;2023-02-28T18:08:33;21.80;;;10.07;;
23565;SDS011;22140;48.988;8.544;2023-02-28T18:13:36;21.45;;;9.77;;
23565;SDS011;22140;48.988;8.544;2023-02-28T18:18:37;22.77;;;10.80;;
23565;SDS011;22140;48.988;8.544;2023-02-28T18:23:38;24.95;;;11.77;;
23565;SDS011;22140;48.988;8.544;2023-02-28T18:28:47;45.45;;;16.20;;
23565;SDS011;22140;48.988;8.544;2023-02-28T18:33:49;39.70;;;12.07;;
23565;SDS011;22140;48.988;8.544;2023-02-28T18:38:51;28.88;;;12.45;;
23565;SDS011;22140;48.988;8.544;2023-02-28T18:43:52;26.53;;;12.67;;
23565;SDS011;22140;48.988;8.544;2023-02-28T18:48:54;28.20;;;10.85;;
23565;SDS011;22140;48.988;8.544;2023-02-28T18:53:56;39.92;;;15.68;;
23565;SDS011;22140;48.988;8.544;2023-02-28T18:58:58;28.53;;;11.97;;
23565;SDS011;22140;48.988;8.544;2023-02-28T19:04:00;27.13;;;11.65;;
23565;SDS011;22140;48.988;8.544;2023-02-28T19:09:02;24.53;;;10.37;;
23565;SDS011;22140;48.988;8.544;2023-02-28T19:14:04;44.20;;;16.83;;
23565;SDS011;22140;48.988;8.544;2023-02-28T19:19:05;24.65;;;10.80;;
23565;SDS011;22140;48.988;8.544;2023-02-28T19:24:06;22.63;;;10.00;;
23565;SDS011;22140;48.988;8.544;2023-02-28T19:29:08;32.47;;;13.95;;
23565;SDS011;22140;48.988;8.544;2023-02-28T19:34:09;20.70;;;9.57;;
23565;SDS011;22140;48.988;8.544;2023-02-28T19:39:10;19.88;;;8.75;;
23565;SDS011;22140;48.988;8.544;2023-02-28T19:44:12;20.60;;;8.32;;
23565;SDS011;22140;48.988;8.544;2023-02-28T19:49:13;19.67;;;8.30;;
23565;SDS011;22140;48.988;8.544;2023-02-28T19:54:14;24.92;;;10.48;;
23565;SDS011;22140;48.988;8.544;2023-02-28T19:59:16;68.07;;;22.63;;
23565;SDS011;22140;48.988;8.544;2023-02-28T20:04:31;32.55;;;12.82;;
23565;SDS011;22140;48.988;8.544;2023-02-28T20:09:32;28.80;;;11.85;;
23565;SDS011;22140;48.988;8.544;2023-02-28T20:14:33;21.83;;;10.30;;
23565;SDS011;22140;48.988;8.544;2023-02-28T20:19:35;25.83;;;10.27;;
23565;SDS011;22140;48.988;8.544;2023-02-28T20:24:36;21.07;;;9.53;;
23565;SDS011;22140;48.988;8.544;2023-02-28T20:29:37;21.02;;;8.88;;
23565;SDS011;22140;48.988;8.544;2023-02-28T20:34:40;24.77;;;9.60;;
23565;SDS011;22140;48.988;8.544;2023-02-28T20:39:41;29.90;;;11.83;;
23565;SDS011;22140;48.988;8.544;2023-02-28T20:44:43;28.20;;;10.02;;
23565;SDS011;22140;48.988;8.544;2023-02-28T20:49:44;27.20;;;10.33;;
23565;SDS011;22140;48.988;8.544;2023-02-28T20:54:45;69.65;;;26.33;;
23565;SDS011;22140;48.988;8.544;2023-02-28T20:59:46;43.38;;;18.95;;
23565;SDS011;22140;48.988;8.544;2023-02-28T21:04:48;29.80;;;13.43;;
23565;SDS011;22140;48.988;8.544;2023-02-28T21:09:49;24.10;;;9.80;;
23565;SDS011;22140;48.988;8.544;2023-02-28T21:14:50;23.17;;;10.57;;
23565;SDS011;22140;48.988;8.544;2023-02-28T21:19:52;27.75;;;11.15;;
23565;SDS011;22140;48.988;8.544;2023-02-28T21:24:53;25.33;;;10.85;;
23565;SDS011;22140;48.988;8.544;2023-02-28T21:29:54;26.73;;;10.57;;
23565;SDS011;22140;48.988;8.544;2023-02-28T21:34:55;28.98;;;11.20;;
23565;SDS011;22140;48.988;8.544;2023-02-28T21:39:57;23.27;;;9.40;;
23565;SDS011;22140;48.988;8.544;2023-02-28T21:44:58;20.88;;;8.25;;
23565;SDS011;22140;48.988;8.544;2023-02-28T21:50:01;24.83;;;8.52;;
23565;SDS011;22140;48.988;8.544;2023-02-28T21:55:02;19.93;;;8.97;;
23565;SDS011;22140;48.988;8.544;2023-02-28T22:00:04;19.70;;;8.25;;
23565;SDS011;22140;48.988;8.544;2023-02-28T22:05:06;19.43;;;8.53;;
23565;SDS011;22140;48.988;8.544;2023-02-28T22:10:08;23.85;;;9.18;;
23565;SDS011;22140;48.988;8.544;2023-02-28T22:15:10;23.42;;;9.23;;
23565;SDS011;22140;48.988;8.544;2023-02-28T22:20:12;24.00;;;9.37;;
23565;SDS011;22140;48.988;8.544;2023-02-28T22:25:13;22.13;;;9.57;;
23565;SDS011;22140;48.988;8.544;2023-02-28T22:30:15;22.77;;;9.57;;
23565;SDS011;22140;48.988;8.544;2023-02-28T22:35:16;22.55;;;9.20;;
23565;SDS011;22140;48.988;8.544;2023-02-28T22:40:19;22.98;;;9.50;;
23565;SDS011;22140;48.988;8.544;2023-02-28T22:45:20;23.10;;;9.80;;
23565;SDS011;22140;48.988;8.544;2023-02-28T22:50:22;22.10;;;9.30;;
23565;SDS011;22140;48.988;8.544;2023-02-28T22:55:23;25.13;;;10.10;;
23565;SDS011;22140;48.988;8.544;2023-02-28T23:00:24;23.00;;;9.35;;
23565;SDS011;22140;48.988;8.544;2023-02-28T23:05:25;24.15;;;9.60;;
23565;SDS011;22140;48.988;8.544;2023-02-28T23:10:27;27.80;;;9.73;;
23565;SDS011;22140;48.988;8.544;2023-02-28T23:15:28;25.63;;;10.00;;
23565;SDS011;22140;48.988;8.544;2023-02-28T23:20:29;28.87;;;10.17;;
23565;SDS011;22140;48.988;8.544;2023-02-28T23:25:32;19.35;;;8.10;;
23565;SDS011;22140;48.988;8.544;2023-02-28T23:30:33;19.13;;;7.30;;
23565;SDS011;22140;48.988;8.544;2023-02-28T23:35:37;21.10;;;7.30;;
23565;SDS011;22140;48.988;8.544;2023-02-28T23:40:39;20.50;;;6.95;;
23565;SDS011;22140;48.988;8.544;2023-02-28T23:45:41;21.37;;;7.67;;
23565;SDS011;22140;48.988;8.544;2023-02-28T23:50:46;21.50;;;7.45;;
23565;SDS011;22140;48.988;8.544;2023-02-28T23:55:48;15.88;;;7.38;;
